Time;durP1;ratioP1;P1;durP2;ratioP2;P2;SDS_P1;SDS_P2;PMS_P1;PMS_P2;Temp;Humidity;BMP_temperature;BMP_pressure;BME280_temperature;BME280_humidity;BME280_pressure;Samples;Min_cycle;Max_cycle;Signal;HPM_P1;HPM_P2
2022/02/27 00:00:29;;;;;;;39.08;18.62;;;;;;;-0.59;100.00;100759.86;1801812;79;21484;-64
2022/02/27 00:02:55;;;;;;;40.58;21.82;;;;;;;-0.68;100.00;100759.80;1801563;79;20916;-65
2022/02/27 00:05:22;;;;;;;61.40;28.23;;;;;;;-0.77;100.00;100754.59;1758275;81;20976;-67
2022/02/27 00:07:49;;;;;;;85.32;37.95;;;;;;;-0.80;100.00;100759.68;1801672;79;21156;-68
2022/02/27 00:10:15;;;;;;;107.07;49.95;;;;;;;-0.80;100.00;100752.27;1758312;81;20925;-67
2022/02/27 00:12:42;;;;;;;97.92;47.27;;;;;;;-0.76;100.00;100759.73;1801610;79;21079;-66
2022/02/27 00:15:08;;;;;;;77.30;35.65;;;;;;;-0.80;100.00;100755.72;1758280;81;20984;-67
2022/02/27 00:17:37;;;;;;;58.83;26.17;;;;;;;-0.86;100.00;100752.36;1758541;81;20926;-66
2022/02/27 00:20:08;;;;;;;44.73;20.85;;;;;;;-0.91;100.00;100758.56;1801972;79;21147;-67
2022/02/27 00:22:35;;;;;;;45.88;22.60;;;;;;;-0.91;100.00;100751.52;1736077;81;21392;-68
2022/02/27 00:25:06;;;;;;;89.40;40.35;;;;;;;-0.89;100.00;100754.80;1726765;83;28462;-67
2022/02/27 00:27:36;;;;;;;66.55;32.50;;;;;;;-0.93;100.00;100752.15;1726877;83;20905;-67
2022/02/27 00:30:05;;;;;;;68.28;32.15;;;;;;;-0.92;100.00;100754.29;1726832;83;21499;-68
2022/02/27 00:32:32;;;;;;;87.15;39.35;;;;;;;-0.92;100.00;100754.29;1726882;83;21142;-67
2022/02/27 00:34:58;;;;;;;75.75;28.80;;;;;;;-0.98;100.00;100749.59;1768382;81;20874;-65
2022/02/27 00:37:25;;;;;;;49.40;24.40;;;;;;;-1.07;100.00;100755.30;1768384;81;20956;-66
2022/02/27 00:39:51;;;;;;;45.98;23.95;;;;;;;-1.16;100.00;100749.09;1726956;83;20956;-67
2022/02/27 00:42:18;;;;;;;42.90;21.12;;;;;;;-1.20;100.00;100750.38;1726806;83;21016;-68
2022/02/27 00:44:45;;;;;;;47.75;20.88;;;;;;;-1.23;100.00;100752.47;1726647;83;21159;-68
2022/02/27 00:47:12;;;;;;;26.67;15.63;;;;;;;-1.31;100.00;100750.08;1730438;82;20837;-68
2022/02/27 00:49:39;;;;;;;43.75;20.92;;;;;;;-1.40;100.00;100753.59;1726726;82;20948;-68
2022/02/27 00:52:07;;;;;;;40.50;22.22;;;;;;;-1.48;100.00;100756.13;1726726;82;20984;-68
2022/02/27 00:54:33;;;;;;;52.48;26.30;;;;;;;-1.58;100.00;100756.17;1727006;83;21431;-67
2022/02/27 00:57:00;;;;;;;72.10;29.48;;;;;;;-1.68;100.00;100762.47;1726919;83;21112;-68
2022/02/27 00:59:26;;;;;;;66.10;27.98;;;;;;;-1.75;100.00;100752.50;1726855;83;20858;-67
2022/02/27 01:01:53;;;;;;;63.45;26.33;;;;;;;-1.72;100.00;100760.09;1726877;83;20885;-67
2022/02/27 01:04:19;;;;;;;62.00;22.60;;;;;;;-1.76;100.00;100753.98;1726679;83;20909;-68
2022/02/27 01:06:47;;;;;;;48.13;23.80;;;;;;;-1.74;100.00;100750.23;1726746;83;20909;-68
2022/02/27 01:09:15;;;;;;;44.60;23.07;;;;;;;-1.72;100.00;100752.20;1727127;83;21198;-68
2022/02/27 01:11:43;;;;;;;32.83;16.70;;;;;;;-1.68;100.00;100753.25;1726889;83;20913;-68
2022/02/27 01:14:09;;;;;;;29.50;15.55;;;;;;;-1.68;100.00;100753.25;1726899;82;21661;-69
2022/02/27 01:16:37;;;;;;;52.48;24.25;;;;;;;-1.67;100.00;100747.82;1726904;82;21557;-69
2022/02/27 01:19:04;;;;;;;61.55;27.13;;;;;;;-1.66;100.00;100744.73;1726760;83;20905;-68
2022/02/27 01:21:31;;;;;;;48.98;24.37;;;;;;;-1.70;100.00;100745.48;1727004;81;21080;-69
2022/02/27 01:23:57;;;;;;;78.28;36.88;;;;;;;-1.70;100.00;100740.22;1726795;83;20928;-69
2022/02/27 01:26:24;;;;;;;92.70;40.10;;;;;;;-1.79;100.00;100735.36;1726806;83;20969;-67
2022/02/27 01:28:50;;;;;;;101.05;46.18;;;;;;;-1.79;100.00;100739.30;1727007;83;20925;-68
2022/02/27 01:31:17;;;;;;;124.05;50.92;;;;;;;-1.83;100.00;100737.92;1768547;81;21024;-69
2022/02/27 01:33:44;;;;;;;96.97;45.73;;;;;;;-1.86;100.00;100732.10;1726659;83;21187;-67
2022/02/27 01:36:11;;;;;;;77.32;34.95;;;;;;;-1.92;100.00;100736.64;1726622;82;20854;-69
2022/02/27 01:38:38;;;;;;;80.92;37.42;;;;;;;-1.98;100.00;100723.09;1726677;83;21495;-68
2022/02/27 01:41:06;;;;;;;60.65;29.72;;;;;;;-2.03;100.00;100724.01;1726925;82;21472;-69
2022/02/27 01:43:33;;;;;;;61.40;30.48;;;;;;;-2.11;100.00;100729.63;1726818;83;21415;-69
2022/02/27 01:45:59;;;;;;;52.75;25.40;;;;;;;-2.19;100.00;100725.91;1726641;83;21188;-69
2022/02/27 01:48:26;;;;;;;37.33;18.52;;;;;;;-2.25;100.00;100725.66;1726683;83;20874;-70
2022/02/27 01:50:54;;;;;;;32.73;19.50;;;;;;;-2.30;100.00;100727.86;1727155;82;21396;-70
2022/02/27 01:53:21;;;;;;;27.73;15.80;;;;;;;-2.37;100.00;100721.87;1726897;83;20917;-68
2022/02/27 01:55:48;;;;;;;29.85;15.68;;;;;;;-2.38;100.00;100722.00;1726972;83;21586;-70
2022/02/27 01:58:14;;;;;;;26.68;16.55;;;;;;;-2.43;100.00;100723.73;1726817;82;21149;-68
2022/02/27 02:00:42;;;;;;;29.60;13.87;;;;;;;-2.47;100.00;100726.80;1726955;83;21538;-70
2022/02/27 02:03:08;;;;;;;16.85;10.15;;;;;;;-2.42;100.00;100721.47;1726764;83;21005;-67
2022/02/27 02:05:36;;;;;;;24.02;11.95;;;;;;;-2.37;100.00;100724.50;1768609;81;21392;-67
2022/02/27 02:08:04;;;;;;;23.50;12.30;;;;;;;-2.39;100.00;100721.17;1768442;81;21491;-70
2022/02/27 02:10:32;;;;;;;17.90;11.08;;;;;;;-2.35;100.00;100730.94;1726955;83;21117;-69
2022/02/27 02:13:01;;;;;;;14.18;9.03;;;;;;;-2.43;100.00;100721.59;1726725;83;21072;-69
2022/02/27 02:15:29;;;;;;;20.25;11.63;;;;;;;-2.51;100.00;100724.92;1715664;83;20934;-69
2022/02/27 02:17:56;;;;;;;15.70;10.05;;;;;;;-2.56;100.00;100723.20;1697787;84;20946;-68
2022/02/27 02:20:24;;;;;;;22.58;11.38;;;;;;;-2.66;100.00;100719.27;1716037;83;20903;-68
2022/02/27 02:22:58;;;;;;;21.95;11.40;;;;;;;-2.70;100.00;100718.37;1697696;82;21871;-69
2022/02/27 02:25:24;;;;;;;14.80;10.80;;;;;;;-2.74;100.00;100723.55;1715468;83;20930;-69
2022/02/27 02:27:53;;;;;;;17.27;11.75;;;;;;;-2.75;100.00;100723.22;1697665;84;20837;-69
2022/02/27 02:30:19;;;;;;;19.62;12.20;;;;;;;-2.76;100.00;100718.45;1725682;83;21472;-69
2022/02/27 02:32:54;;;;;;;18.02;12.00;;;;;;;-2.83;100.00;100723.91;1725886;83;20889;-69
2022/02/27 02:35:24;;;;;;;17.50;12.33;;;;;;;-2.85;100.00;100727.98;1725698;82;21653;-69
2022/02/27 02:37:51;;;;;;;24.27;12.75;;;;;;;-2.82;100.00;100725.09;1725686;83;20922;-69
2022/02/27 02:40:17;;;;;;;29.37;14.18;;;;;;;-2.83;100.00;100723.91;1725622;83;21021;-69
2022/02/27 02:42:46;;;;;;;22.85;13.65;;;;;;;-2.82;100.00;100729.50;1725697;83;20941;-68
2022/02/27 02:45:14;;;;;;;17.05;11.78;;;;;;;-2.83;100.00;100729.98;1725594;82;20994;-69
2022/02/27 02:47:42;;;;;;;23.90;13.68;;;;;;;-2.90;100.00;100734.12;1725889;83;21109;-67
2022/02/27 02:50:10;;;;;;;25.37;13.72;;;;;;;-3.02;100.00;100735.23;1725565;83;20890;-69
2022/02/27 02:52:37;;;;;;;22.20;15.65;;;;;;;-3.13;100.00;100735.37;1725804;82;20973;-68
2022/02/27 02:55:16;;;;;;;35.27;21.57;;;;;;;-3.18;100.00;100734.46;1725893;83;20898;-68
2022/02/27 02:57:42;;;;;;;28.42;17.40;;;;;;;-3.28;100.00;100745.43;1727408;83;21537;-69
2022/02/27 03:00:11;;;;;;;28.32;17.05;;;;;;;-3.36;100.00;100747.39;1727077;83;21158;-69
2022/02/27 03:02:38;;;;;;;30.25;19.27;;;;;;;-3.41;100.00;100749.59;1725540;83;20973;-68
2022/02/27 03:05:07;;;;;;;30.97;18.62;;;;;;;-3.45;100.00;100756.92;1725528;83;20929;-66
2022/02/27 03:07:38;;;;;;;36.17;21.23;;;;;;;-3.52;100.00;100756.27;1701090;83;20862;-69
2022/02/27 03:10:07;;;;;;;28.40;18.57;;;;;;;-3.59;100.00;100752.03;1725628;82;20985;-68
2022/02/27 03:12:33;;;;;;;;;;;;;;;-3.60;100.00;100751.69;1728399;82;21136;-67
2022/02/27 03:15:00;;;;;;;34.58;20.88;;;;;;;-3.55;100.00;100756.52;1725577;83;20181;-69
2022/02/27 03:17:28;;;;;;;34.35;21.25;;;;;;;-3.57;100.00;100759.78;1725775;82;20993;-69
2022/02/27 03:19:54;;;;;;;44.73;26.48;;;;;;;-3.51;100.00;100763.17;1725737;83;21397;-68
2022/02/27 03:22:21;;;;;;;37.73;23.27;;;;;;;-3.43;100.00;100767.27;1725571;82;20929;-69
2022/02/27 03:24:48;;;;;;;34.80;23.35;;;;;;;-3.38;100.00;100767.72;1725692;83;21165;-68
2022/02/27 03:27:14;;;;;;;37.05;23.38;;;;;;;-3.34;100.00;100773.03;1725623;82;20906;-68
2022/02/27 03:29:41;;;;;;;31.82;19.90;;;;;;;-3.21;100.00;100778.53;1725663;82;21535;-69
2022/02/27 03:32:07;;;;;;;26.35;18.20;;;;;;;-3.12;100.00;100775.92;1725618;83;21516;-69
2022/02/27 03:34:34;;;;;;;24.77;14.87;;;;;;;-2.95;100.00;100779.69;1725807;83;20843;-67
2022/02/27 03:37:01;;;;;;;23.30;14.15;;;;;;;-2.83;100.00;100783.03;1725688;83;22011;-70
2022/02/27 03:39:28;;;;;;;19.48;14.87;;;;;;;-2.69;100.00;100783.13;1725462;83;20989;-69
2022/02/27 03:41:54;;;;;;;19.55;11.55;;;;;;;-2.56;100.00;100790.24;1725626;83;21476;-68
2022/02/27 03:44:21;;;;;;;20.00;10.95;;;;;;;-2.46;100.00;100792.87;1725626;83;20990;-68
2022/02/27 03:46:48;;;;;;;23.20;12.63;;;;;;;-2.31;100.00;100789.33;1725697;83;20952;-69
2022/02/27 03:49:15;;;;;;;16.93;10.95;;;;;;;-2.20;100.00;100796.59;1725908;82;21775;-68
2022/02/27 03:51:42;;;;;;;18.77;10.58;;;;;;;-2.04;100.00;100793.86;1725750;83;21039;-70
2022/02/27 03:54:08;;;;;;;21.75;10.13;;;;;;;-1.93;100.00;100799.47;1725572;82;20921;-69
2022/02/27 03:56:35;;;;;;;15.32;9.68;;;;;;;-1.84;100.00;100803.36;1725746;83;20850;-69
2022/02/27 03:59:02;;;;;;;19.52;10.00;;;;;;;-1.76;100.00;100803.99;1697933;83;21627;-69
2022/02/27 04:01:28;;;;;;;20.92;9.93;;;;;;;-1.69;100.00;100801.59;1697659;84;21151;-69
2022/02/27 04:03:55;;;;;;;13.28;9.53;;;;;;;-1.63;100.00;100799.72;1677710;84;20981;-69
2022/02/27 04:06:21;;;;;;;17.42;9.63;;;;;;;-1.55;100.00;100803.77;1725543;83;20965;-70
2022/02/27 04:08:48;;;;;;;18.17;9.50;;;;;;;-1.48;100.00;100803.53;1697679;84;21023;-69
2022/02/27 04:11:15;;;;;;;13.80;9.43;;;;;;;-1.43;100.00;100807.88;1715580;83;20891;-68
2022/02/27 04:13:41;;;;;;;15.50;9.08;;;;;;;-1.40;100.00;100807.58;1697899;83;21136;-70
2022/02/27 04:16:09;;;;;;;10.70;9.63;;;;;;;-1.34;100.00;100806.19;1715551;82;20922;-70
2022/02/27 04:18:36;;;;;;;13.18;9.18;;;;;;;-1.31;100.00;100809.84;1697770;84;20849;-68
2022/02/27 04:21:02;;;;;;;12.70;9.50;;;;;;;-1.29;100.00;100811.85;1715628;83;20934;-70
2022/02/27 04:23:29;;;;;;;13.20;8.85;;;;;;;-1.25;100.00;100811.05;1714866;82;20981;-70
2022/02/27 04:25:55;;;;;;;15.72;9.38;;;;;;;-1.23;100.00;100813.88;1777069;80;21152;-70
2022/02/27 04:28:22;;;;;;;11.45;8.53;;;;;;;-1.20;100.00;100817.56;1760642;81;21699;-69
2022/02/27 04:30:48;;;;;;;13.85;9.35;;;;;;;-1.18;100.00;100814.77;1801555;79;20967;-66
2022/02/27 04:33:14;;;;;;;14.38;9.33;;;;;;;-1.15;100.00;100815.78;1801522;79;20929;-69
2022/02/27 04:35:41;;;;;;;19.35;9.68;;;;;;;-1.13;100.00;100819.96;1760878;81;21073;-68
2022/02/27 04:38:09;;;;;;;20.08;9.75;;;;;;;-1.13;100.00;100822.59;1801612;79;21228;-67
2022/02/27 04:40:35;;;;;;;11.18;8.50;;;;;;;-1.08;100.00;100815.54;1760904;81;20926;-67
2022/02/27 04:43:02;;;;;;;12.23;8.35;;;;;;;-1.07;100.00;100819.85;1801684;79;20960;-69
2022/02/27 04:45:29;;;;;;;11.93;7.47;;;;;;;-1.05;100.00;100824.95;1760664;81;20981;-69
2022/02/27 04:47:55;;;;;;;16.50;9.23;;;;;;;-1.07;100.00;100829.08;1801941;79;21471;-70
2022/02/27 04:50:22;;;;;;;17.27;10.78;;;;;;;-1.06;100.00;100825.95;1801571;79;21153;-68
2022/02/27 04:52:48;;;;;;;17.25;9.75;;;;;;;-1.06;100.00;100829.90;1801569;79;20940;-69
2022/02/27 04:55:15;;;;;;;11.12;8.98;;;;;;;-1.07;100.00;100830.89;1760724;81;20914;-69
2022/02/27 04:57:43;;;;;;;14.95;7.92;;;;;;;-1.10;100.00;100830.20;1754224;81;21072;-68
2022/02/27 05:00:12;;;;;;;11.57;8.18;;;;;;;-1.08;100.00;100824.77;1786215;79;26917;-67
2022/02/27 05:02:38;;;;;;;11.00;7.58;;;;;;;-1.07;100.00;100828.25;1784394;79;21136;-67
2022/02/27 05:05:10;;;;;;;13.88;9.15;;;;;;;-1.09;100.00;100833.16;1744862;81;20926;-67
2022/02/27 05:07:40;;;;;;;11.70;8.88;;;;;;;-1.07;100.00;100834.84;1786909;79;20987;-68
2022/02/27 05:10:09;;;;;;;11.12;8.13;;;;;;;-1.06;100.00;100832.04;1745871;81;21032;-66
2022/02/27 05:12:38;;;;;;;10.98;7.28;;;;;;;-1.06;100.00;100826.77;1743837;81;20967;-67
2022/02/27 05:15:28;;;;;;;14.50;7.60;;;;;;;-1.05;100.00;100826.27;1745333;81;21543;-66
2022/02/27 05:17:56;;;;;;;14.53;8.90;;;;;;;-1.03;100.00;100830.91;1819886;77;21064;-67
2022/02/27 05:20:23;;;;;;;14.13;8.88;;;;;;;-1.02;100.00;100830.78;1796325;77;21610;-67
2022/02/27 05:22:51;;;;;;;16.50;9.48;;;;;;;-1.02;100.00;100826.00;1722465;83;21534;-68
2022/02/27 05:25:20;;;;;;;24.37;10.80;;;;;;;-0.99;100.00;100828.34;1795901;77;20944;-69
2022/02/27 05:27:51;;;;;;;21.55;13.32;;;;;;;-0.98;100.00;100829.52;1818641;77;21160;-68
2022/02/27 05:30:19;;;;;;;26.15;13.95;;;;;;;-0.98;100.00;100826.88;1761328;79;21049;-68
2022/02/27 05:32:48;;;;;;;22.82;14.33;;;;;;;-0.93;100.00;100827.73;1797458;79;20967;-67
2022/02/27 05:35:15;;;;;;;24.15;14.93;;;;;;;-0.91;100.00;100831.91;1848851;77;20994;-66
2022/02/27 05:37:44;;;;;;;26.30;13.88;;;;;;;-0.88;100.00;100828.97;1848909;77;21140;-68
2022/02/27 05:40:12;;;;;;;26.82;14.05;;;;;;;-0.87;100.00;100829.30;1848592;77;21776;-68
2022/02/27 05:42:39;;;;;;;17.48;11.15;;;;;;;-0.85;100.00;100827.84;1794321;77;20979;-67
2022/02/27 05:45:08;;;;;;;14.73;10.03;;;;;;;-0.82;100.00;100831.98;1849053;77;20992;-67
2022/02/27 05:47:36;;;;;;;16.67;10.20;;;;;;;-0.81;100.00;100828.36;1849597;77;21403;-67
2022/02/27 05:50:04;;;;;;;10.40;9.28;;;;;;;-0.79;100.00;100832.50;1849434;77;21497;-66
2022/02/27 05:52:31;;;;;;;17.90;10.48;;;;;;;-0.77;100.00;100830.56;1849556;77;21132;-69
2022/02/27 05:54:58;;;;;;;17.95;10.68;;;;;;;-0.74;100.00;100834.20;1849613;77;20980;-68
2022/02/27 05:57:25;;;;;;;13.25;9.85;;;;;;;-0.73;100.00;100834.56;1849347;77;20912;-68
2022/02/27 05:59:52;;;;;;;16.30;10.72;;;;;;;-0.69;100.00;100828.48;1849608;77;21012;-68
2022/02/27 06:02:18;;;;;;;16.85;9.25;;;;;;;-0.67;100.00;100836.59;1858191;77;21038;-67
2022/02/27 06:04:45;;;;;;;17.48;11.65;;;;;;;-0.62;100.00;100834.83;1860574;76;21540;-67
2022/02/27 06:07:12;;;;;;;15.48;10.40;;;;;;;-0.57;100.00;100829.93;1858772;76;20897;-67
2022/02/27 06:09:41;;;;;;;18.75;12.28;;;;;;;-0.51;100.00;100838.58;1858830;76;21482;-68
2022/02/27 06:12:09;;;;;;;23.38;12.93;;;;;;;-0.45;100.00;100835.32;1858675;77;21475;-68
2022/02/27 06:14:38;;;;;;;;;;;;;;;-0.39;100.00;100842.30;1861552;76;20842;-67
2022/02/27 06:17:06;;;;;;;31.57;18.12;;;;;;;-0.36;100.00;100840.20;1858538;76;21304;-67
2022/02/27 06:19:35;;;;;;;50.88;29.87;;;;;;;-0.29;100.00;100847.03;1858414;77;20888;-67
2022/02/27 06:22:03;;;;;;;59.60;32.55;;;;;;;-0.27;100.00;100846.36;1858511;76;20940;-67
2022/02/27 06:24:29;;;;;;;48.63;30.23;;;;;;;-0.26;100.00;100846.22;1858562;76;20861;-68
2022/02/27 06:26:56;;;;;;;22.25;14.30;;;;;;;-0.24;100.00;100843.44;1858381;76;20880;-68
2022/02/27 06:29:23;;;;;;;18.07;10.93;;;;;;;-0.22;100.00;100844.95;1858594;76;21790;-67
2022/02/27 06:31:49;;;;;;;18.37;11.08;;;;;;;-0.21;100.00;100857.64;1858472;77;20892;-67
2022/02/27 06:34:16;;;;;;;17.23;11.03;;;;;;;-0.19;100.00;100849.09;1858581;77;20851;-68
2022/02/27 06:36:43;;;;;;;23.80;11.63;;;;;;;-0.17;100.00;100854.20;1858428;77;20948;-68
2022/02/27 06:39:10;;;;;;;15.00;10.80;;;;;;;-0.13;100.00;100856.88;1858438;77;20986;-67
2022/02/27 06:41:36;;;;;;;18.25;10.72;;;;;;;-0.07;100.00;100856.29;1858616;77;21133;-66
2022/02/27 06:44:03;;;;;;;20.70;10.68;;;;;;;-0.03;100.00;100858.44;1839481;77;20896;-67
2022/02/27 06:46:30;;;;;;;16.85;10.25;;;;;;;0.01;100.00;100862.94;1858317;77;20924;-66
2022/02/27 06:48:57;;;;;;;18.37;11.93;;;;;;;0.10;100.00;100860.71;1858664;75;20869;-68
2022/02/27 06:51:23;;;;;;;14.78;9.65;;;;;;;0.21;100.00;100856.98;1858284;77;20947;-66
2022/02/27 06:53:50;;;;;;;17.92;9.70;;;;;;;0.36;100.00;100868.63;1858797;76;21064;-66
2022/02/27 06:56:16;;;;;;;14.83;9.58;;;;;;;0.42;100.00;100865.89;1858353;76;20813;-67
2022/02/27 06:58:43;;;;;;;24.32;11.25;;;;;;;0.53;100.00;100865.61;1858141;76;20943;-67
2022/02/27 07:01:10;;;;;;;17.65;9.78;;;;;;;0.70;100.00;100874.46;1858578;76;21387;-66
2022/02/27 07:03:36;;;;;;;11.55;8.45;;;;;;;0.95;100.00;100878.05;1858666;76;20853;-65
2022/02/27 07:06:03;;;;;;;9.55;7.60;;;;;;;1.09;100.00;100881.09;1858360;77;21197;-68
2022/02/27 07:08:31;;;;;;;12.85;8.78;;;;;;;1.14;100.00;100886.23;1858447;76;20932;-67
2022/02/27 07:11:02;;;;;;;13.03;8.70;;;;;;;1.36;100.00;100880.84;1858453;75;20979;-67
2022/02/27 07:13:28;;;;;;;10.95;8.00;;;;;;;1.66;100.00;100890.50;1858589;75;21400;-66
2022/02/27 07:15:54;;;;;;;13.80;8.70;;;;;;;2.14;100.00;100887.58;1858350;77;20880;-68
2022/02/27 07:18:23;;;;;;;11.55;7.80;;;;;;;2.96;100.00;100886.09;1846415;77;21128;-67
2022/02/27 07:20:50;;;;;;;18.92;7.53;;;;;;;3.18;100.00;100887.16;1849975;77;21399;-68
2022/02/27 07:23:17;;;;;;;14.87;9.53;;;;;;;3.79;100.00;100889.98;1864663;77;20842;-68
2022/02/27 07:25:43;;;;;;;13.05;8.03;;;;;;;3.74;100.00;100891.02;1813989;78;20959;-66
2022/02/27 07:28:11;;;;;;;11.18;8.55;;;;;;;4.04;100.00;100884.83;1864635;77;21483;-68
2022/02/27 07:30:37;;;;;;;17.00;9.50;;;;;;;3.87;100.00;100887.26;1864881;76;21130;-69
2022/02/27 07:33:04;;;;;;;13.28;7.15;;;;;;;3.84;100.00;100879.65;1864526;76;21522;-68
2022/02/27 07:35:31;;;;;;;20.65;8.30;;;;;;;4.10;100.00;100883.79;1864140;76;20921;-69
2022/02/27 07:38:15;;;;;;;14.23;7.95;;;;;;;3.91;100.00;100887.23;1864540;77;20882;-68
2022/02/27 07:40:42;;;;;;;13.32;7.30;;;;;;;3.86;100.00;100880.30;1814216;79;20959;-69
2022/02/27 07:43:09;;;;;;;14.58;8.43;;;;;;;4.76;100.00;100886.66;1864741;77;21058;-68
2022/02/27 07:45:36;;;;;;;12.00;7.62;;;;;;;5.19;100.00;100887.63;1864704;77;20854;-66
2022/02/27 07:48:04;;;;;;;14.10;7.05;;;;;;;5.44;98.65;100888.16;1864662;77;20869;-67
2022/02/27 07:50:31;;;;;;;10.63;6.58;;;;;;;5.47;91.48;100884.29;1864785;77;20901;-67
2022/02/27 07:52:58;;;;;;;11.48;5.80;;;;;;;5.73;86.27;100888.58;1813483;79;20924;-68
2022/02/27 07:55:26;;;;;;;15.80;9.10;;;;;;;5.53;84.14;100891.52;1864721;77;21144;-68
2022/02/27 07:57:53;;;;;;;21.57;10.38;;;;;;;5.76;87.33;100889.52;1864734;77;20830;-68
2022/02/27 08:00:20;;;;;;;7.87;5.28;;;;;;;6.27;81.02;100886.41;1864775;77;20886;-68
2022/02/27 08:02:47;;;;;;;14.33;6.87;;;;;;;6.45;74.08;100888.11;1864856;76;20870;-68
2022/02/27 08:05:16;;;;;;;12.68;5.80;;;;;;;6.33;71.89;100885.66;1864930;77;20854;-67
2022/02/27 08:07:43;;;;;;;9.63;5.12;;;;;;;6.12;74.98;100885.16;1814039;79;21130;-66
2022/02/27 08:10:12;;;;;;;12.75;5.70;;;;;;;6.39;71.41;100885.72;1838516;77;21515;-67
2022/02/27 08:12:44;;;;;;;16.60;5.47;;;;;;;6.50;70.17;100879.53;1864849;76;21518;-68
2022/02/27 08:15:12;;;;;;;10.60;5.28;;;;;;;6.77;68.89;100880.01;1864499;77;21522;-68
2022/02/27 08:17:40;;;;;;;17.50;5.15;;;;;;;6.92;65.01;100882.55;1867992;76;20865;-66
2022/02/27 08:20:09;;;;;;;13.30;6.35;;;;;;;6.94;65.30;100887.19;1869993;76;21152;-68
2022/02/27 08:22:37;;;;;;;10.35;4.95;;;;;;;7.17;65.97;100882.05;1869585;76;20905;-66
2022/02/27 08:25:08;;;;;;;6.10;4.20;;;;;;;6.97;61.91;100879.30;1869784;76;20928;-68
2022/02/27 08:27:35;;;;;;;6.15;3.72;;;;;;;7.12;60.72;100876.49;1869887;76;20874;-69
2022/02/27 08:30:01;;;;;;;7.67;4.40;;;;;;;7.30;57.81;100878.94;1869823;76;20920;-69
2022/02/27 08:32:29;;;;;;;9.55;4.03;;;;;;;7.06;59.97;100883.45;1869739;76;22302;-68
2022/02/27 08:34:55;;;;;;;6.90;4.00;;;;;;;7.25;57.05;100873.86;1869296;76;20838;-69
2022/02/27 08:37:24;;;;;;;23.73;14.63;;;;;;;7.59;56.45;100870.27;1869888;76;20940;-66
2022/02/27 08:39:53;;;;;;;12.47;6.45;;;;;;;7.61;55.73;100868.75;1869930;76;20906;-67
2022/02/27 08:42:20;;;;;;;6.58;3.92;;;;;;;7.84;56.09;100872.38;1869943;76;20905;-67
2022/02/27 08:44:46;;;;;;;6.35;3.05;;;;;;;8.15;54.62;100869.12;1869955;76;21127;-66
2022/02/27 08:47:13;;;;;;;31.60;27.82;;;;;;;7.71;50.39;100867.32;1869849;76;20908;-65
2022/02/27 08:49:40;;;;;;;6.85;5.28;;;;;;;7.38;48.64;100871.78;1850875;76;20940;-66
2022/02/27 08:52:07;;;;;;;3.80;3.00;;;;;;;7.21;48.88;100861.44;1870108;76;20870;-66
2022/02/27 08:54:34;;;;;;;6.50;5.37;;;;;;;7.04;49.51;100854.80;1869991;76;21027;-67
2022/02/27 08:57:01;;;;;;;6.47;3.77;;;;;;;6.97;49.74;100857.94;1870062;76;21140;-66
2022/02/27 08:59:29;;;;;;;7.22;4.28;;;;;;;7.01;50.88;100858.69;1869804;76;21032;-65
2022/02/27 09:01:56;;;;;;;5.70;3.20;;;;;;;7.46;50.47;100855.56;1870169;76;20854;-65
2022/02/27 09:04:23;;;;;;;4.45;2.37;;;;;;;7.20;45.46;100858.47;1870364;76;20940;-67
2022/02/27 09:06:51;;;;;;;4.12;2.60;;;;;;;6.43;44.98;100859.47;1871004;76;21447;-67
2022/02/27 09:09:18;;;;;;;5.53;3.80;;;;;;;6.03;45.75;100851.16;1870270;76;21388;-66
2022/02/27 09:11:45;;;;;;;7.20;3.20;;;;;;;6.28;46.77;100847.56;1869966;76;20953;-69
2022/02/27 09:14:13;;;;;;;6.58;3.33;;;;;;;6.03;48.02;100852.50;1870152;76;20870;-67
2022/02/27 09:16:40;;;;;;;8.83;4.17;;;;;;;6.08;48.48;100851.41;1869910;76;20973;-68
2022/02/27 09:19:06;;;;;;;8.58;5.10;;;;;;;7.03;47.19;100853.98;1870015;76;20853;-67
2022/02/27 09:21:33;;;;;;;3.17;2.52;;;;;;;7.61;46.74;100862.06;1869922;76;21132;-68
2022/02/27 09:24:00;;;;;;;4.30;2.77;;;;;;;7.59;44.29;100850.23;1869943;76;20901;-68
2022/02/27 09:26:27;;;;;;;7.78;6.20;;;;;;;7.58;44.66;100855.28;1869898;76;21404;-66
2022/02/27 09:28:54;;;;;;;10.00;7.97;;;;;;;7.58;44.07;100855.28;1869804;76;20913;-67
2022/02/27 09:31:21;;;;;;;8.30;3.40;;;;;;;7.65;44.00;100848.11;1870429;76;20983;-68
2022/02/27 09:33:48;;;;;;;15.20;6.85;;;;;;;6.99;44.60;100849.23;1870207;76;21067;-68
2022/02/27 09:36:18;;;;;;;5.30;3.42;;;;;;;7.40;43.66;100846.51;1870183;76;20881;-67
2022/02/27 09:38:45;;;;;;;6.58;3.08;;;;;;;8.14;42.74;100848.25;1869979;76;21514;-66
2022/02/27 09:41:12;;;;;;;4.85;2.92;;;;;;;8.57;41.42;100842.48;1869929;76;20972;-68
2022/02/27 09:43:39;;;;;;;5.45;2.37;;;;;;;8.29;41.52;100840.53;1870185;76;21507;-67
2022/02/27 09:46:06;;;;;;;6.22;3.37;;;;;;;8.14;41.03;100842.09;1850590;76;21793;-67
2022/02/27 09:48:34;;;;;;;5.90;2.77;;;;;;;7.78;42.22;100835.27;1869889;76;20845;-66
2022/02/27 09:51:01;;;;;;;4.55;3.10;;;;;;;7.15;43.76;100840.86;1869794;76;21466;-66
2022/02/27 09:53:28;;;;;;;5.95;3.40;;;;;;;6.59;44.82;100836.98;1870132;76;21381;-65
2022/02/27 09:55:57;;;;;;;6.37;2.27;;;;;;;6.25;46.13;100835.97;1869967;76;21356;-68
2022/02/27 09:58:24;;;;;;;5.72;2.70;;;;;;;5.96;46.82;100832.45;1791273;78;21151;-68
2022/02/27 10:00:51;;;;;;;8.78;2.85;;;;;;;5.82;47.05;100825.83;1823592;78;21513;-68
2022/02/27 10:03:20;;;;;;;6.28;3.20;;;;;;;5.50;47.05;100825.31;1824088;78;20865;-66
2022/02/27 10:05:47;;;;;;;6.55;3.35;;;;;;;5.26;47.78;100825.97;1749925;78;28754;-67
2022/02/27 10:08:15;;;;;;;8.68;6.05;;;;;;;5.05;48.11;100820.63;1800846;78;20912;-67
2022/02/27 10:10:56;;;;;;;4.87;4.12;;;;;;;5.59;47.85;100817.53;1824154;78;21108;-67
2022/02/27 10:13:45;;;;;;;15.00;7.80;;;;;;;6.44;44.97;100823.77;1823544;78;20928;-68
2022/02/27 10:16:24;;;;;;;33.92;13.10;;;;;;;6.93;43.10;100822.80;1823916;78;21529;-68
2022/02/27 10:18:59;;;;;;;26.57;11.03;;;;;;;7.47;42.04;100813.11;1823095;78;20948;-68
2022/02/27 10:21:37;;;;;;;18.02;3.98;;;;;;;8.13;41.56;100818.53;1800525;79;21359;-69
2022/02/27 10:24:12;;;;;;;3.35;2.33;;;;;;;8.11;41.03;100820.59;1800359;79;21141;-69
2022/02/27 10:26:41;;;;;;;4.08;2.30;;;;;;;7.45;42.42;100819.20;1800443;79;20987;-67
2022/02/27 10:29:16;;;;;;;8.58;2.80;;;;;;;6.48;43.69;100826.36;1800130;79;20933;-65
2022/02/27 10:31:54;;;;;;;5.72;2.50;;;;;;;6.24;44.46;100816.96;1800490;79;20925;-66
2022/02/27 10:34:36;;;;;;;8.38;2.65;;;;;;;6.40;44.31;100810.52;1800458;79;20956;-65
2022/02/27 10:37:09;;;;;;;3.95;2.20;;;;;;;6.83;44.31;100812.48;1800521;79;21130;-67
2022/02/27 10:39:51;;;;;;;2.27;1.95;;;;;;;7.81;39.88;100812.13;1800238;79;20909;-66
2022/02/27 10:42:31;;;;;;;4.67;2.30;;;;;;;7.62;38.42;100803.58;1800507;79;20901;-67
2022/02/27 10:45:01;;;;;;;5.95;2.02;;;;;;;7.91;39.00;100797.88;1800308;79;20877;-67
2022/02/27 10:47:35;;;;;;;4.80;2.77;;;;;;;8.30;39.19;100803.37;1773901;79;21538;-67
2022/02/27 10:50:11;;;;;;;10.35;5.25;;;;;;;8.86;37.71;100799.36;1800221;79;21842;-67
2022/02/27 10:52:44;;;;;;;12.50;7.12;;;;;;;8.88;37.63;100795.44;1800572;79;20995;-68
2022/02/27 10:55:11;;;;;;;11.90;5.42;;;;;;;8.99;36.62;100796.13;1800257;79;21480;-67
2022/02/27 10:57:47;;;;;;;7.90;4.33;;;;;;;8.78;36.68;100796.41;1800608;79;20877;-67
2022/02/27 11:00:25;;;;;;;3.80;2.05;;;;;;;7.94;37.50;100788.09;1800173;79;20869;-68
2022/02/27 11:03:02;;;;;;;3.30;2.30;;;;;;;7.18;39.44;100790.23;1800290;79;21154;-68
2022/02/27 11:05:34;;;;;;;;;;;;;;;6.43;40.57;100782.13;1802733;79;21032;-68
2022/02/27 11:08:04;;;;;;;6.67;3.17;;;;;;;6.22;41.67;100780.34;1800416;79;20102;-66
2022/02/27 11:10:35;;;;;;;6.08;2.67;;;;;;;5.98;42.65;100776.30;1800201;79;20898;-66
2022/02/27 11:13:08;;;;;;;5.10;2.70;;;;;;;5.62;42.96;100775.85;1800478;79;20956;-68
2022/02/27 11:15:36;;;;;;;5.25;3.42;;;;;;;5.33;43.26;100765.64;1800199;79;21148;-66
2022/02/27 11:18:04;;;;;;;2.65;2.45;;;;;;;5.96;41.13;100765.00;1804849;79;21589;-65